createdAt,value
2023-05-02T00:02:44.394Z,5.53
2023-05-02T00:07:48.760Z,9.45
2023-05-02T00:12:51.550Z,5.20
2023-05-02T00:17:54.352Z,6.22
2023-05-02T00:22:58.021Z,5.05
2023-05-02T00:28:04.825Z,4.60
2023-05-02T00:33:07.839Z,4.95
2023-05-02T00:38:10.521Z,4.40
2023-05-02T00:43:13.293Z,5.63
2023-05-02T00:48:16.038Z,3.80
2023-05-02T00:53:18.844Z,3.85
2023-05-02T00:58:21.612Z,3.67
2023-05-02T01:03:40.590Z,3.33
2023-05-02T01:09:47.379Z,3.00
2023-05-02T01:14:55.931Z,3.00
2023-05-02T01:20:06.679Z,2.97
2023-05-02T01:25:17.950Z,2.70
2023-05-02T01:30:22.348Z,2.45
2023-05-02T01:35:26.969Z,2.40
2023-05-02T01:40:30.879Z,2.83
2023-05-02T01:45:36.688Z,2.90
2023-05-02T01:50:42.938Z,3.40
2023-05-02T01:55:47.412Z,6.95
2023-05-02T02:00:50.413Z,4.78
2023-05-02T02:05:55.288Z,6.05
2023-05-02T02:11:12.672Z,5.10
2023-05-02T02:16:32.054Z,27.88
2023-05-02T02:21:37.022Z,17.85
2023-05-02T02:31:42.272Z,4.88
2023-05-02T02:36:47.504Z,4.70
2023-05-02T02:42:19.621Z,4.32
2023-05-02T02:47:57.077Z,4.22
2023-05-02T02:53:16.258Z,4.13
2023-05-02T02:58:37.829Z,4.50
2023-05-02T03:03:42.573Z,4.45
2023-05-02T03:08:47.043Z,4.50
2023-05-02T03:13:49.780Z,4.65
2023-05-02T03:18:53.450Z,4.32
2023-05-02T03:23:56.250Z,4.30
2023-05-02T03:28:59.287Z,4.35
2023-05-02T03:34:10.775Z,4.38
2023-05-02T03:39:13.526Z,4.15
2023-05-02T03:44:16.186Z,4.38
2023-05-02T03:49:20.442Z,4.38
2023-05-02T03:54:23.842Z,3.67
2023-05-02T03:59:26.523Z,4.18
2023-05-02T04:04:29.686Z,3.92
2023-05-02T04:09:32.397Z,3.92
2023-05-02T04:14:35.598Z,4.15
2023-05-02T04:19:38.160Z,3.88
2023-05-02T04:24:41.290Z,4.30
2023-05-02T04:29:54.840Z,4.00
2023-05-02T04:34:57.378Z,3.92
2023-05-02T04:40:00.388Z,3.65
2023-05-02T04:45:03.297Z,5.10
2023-05-02T04:50:06.688Z,3.58
2023-05-02T04:55:09.642Z,3.30
2023-05-02T05:00:12.925Z,3.78
2023-05-02T05:05:25.616Z,3.83
2023-05-02T05:10:28.943Z,3.42
2023-05-02T05:15:31.474Z,3.72
2023-05-02T05:20:34.517Z,9.18
2023-05-02T05:25:37.437Z,45.92
2023-05-02T05:30:50.091Z,15.18
2023-05-02T05:35:52.759Z,11.50
2023-05-02T05:40:55.652Z,15.75
2023-05-02T05:45:58.637Z,21.65
2023-05-02T05:51:06.325Z,13.63
2023-05-02T05:56:15.411Z,6.72
2023-05-02T06:01:18.179Z,6.32
2023-05-02T06:06:20.724Z,4.90
2023-05-02T06:11:23.401Z,24.73
2023-05-02T06:16:26.182Z,932.30
2023-05-02T06:21:29.202Z,999.90
2023-05-02T06:26:41.760Z,999.90
2023-05-02T06:31:44.450Z,999.90
2023-05-02T06:36:47.143Z,999.90
2023-05-02T06:41:49.736Z,999.90
2023-05-02T06:46:52.483Z,999.90
2023-05-02T06:51:55.157Z,999.90
2023-05-02T06:56:58.057Z,999.90
2023-05-02T07:02:01.009Z,999.90
2023-05-02T07:07:14.255Z,999.90
2023-05-02T07:12:17.093Z,999.90
2023-05-02T07:17:20.434Z,999.90
2023-05-02T07:22:22.984Z,999.90
2023-05-02T07:27:26.016Z,999.90
2023-05-02T07:32:28.964Z,999.90
2023-05-02T07:37:36.176Z,999.90
2023-05-02T07:42:39.072Z,999.90
2023-05-02T07:48:00.508Z,999.90
2023-05-02T07:53:03.446Z,999.90
2023-05-02T07:58:16.126Z,999.90
2023-05-02T08:03:18.932Z,999.90
2023-05-02T08:08:21.566Z,999.90
2023-05-02T08:13:24.525Z,999.90
2023-05-02T08:18:27.283Z,999.90
2023-05-02T08:23:30.007Z,999.90
2023-05-02T08:28:32.957Z,999.90
2023-05-02T08:33:35.926Z,999.90
2023-05-02T08:38:38.753Z,999.90
2023-05-02T08:43:42.032Z,999.90
2023-05-02T08:48:46.616Z,999.90
2023-05-02T08:53:51.204Z,999.90
2023-05-02T08:58:53.807Z,999.90
2023-05-02T09:03:59.193Z,999.90
2023-05-02T09:09:02.027Z,999.90
2023-05-02T09:14:16.653Z,999.90
2023-05-02T09:24:30.491Z,999.90
2023-05-02T09:29:38.870Z,999.90
2023-05-02T09:34:42.051Z,999.90
2023-05-02T09:40:07.246Z,999.90
2023-05-02T09:45:10.603Z,999.90
2023-05-02T09:50:13.615Z,114.18
2023-05-02T09:55:23.289Z,4.45
2023-05-02T10:00:45.892Z,7.90
2023-05-02T10:05:55.243Z,3.70
2023-05-02T10:14:01.368Z,1.92
2023-05-02T10:19:10.016Z,2.65
2023-05-02T10:24:13.947Z,9.00
2023-05-02T10:29:31.068Z,3.13
2023-05-02T10:34:34.906Z,2.33
2023-05-02T10:39:38.841Z,2.95
2023-05-02T10:44:43.048Z,21.43
2023-05-02T10:50:03.850Z,10.85
2023-05-02T10:55:24.930Z,8.30
2023-05-02T11:00:27.678Z,6.55
2023-05-02T11:05:30.594Z,2.58
2023-05-02T11:10:35.901Z,5.60
2023-05-02T11:15:41.337Z,2.33
2023-05-02T11:20:45.595Z,5.20
2023-05-02T11:25:49.064Z,10.77
2023-05-02T11:30:51.824Z,26.35
2023-05-02T11:35:54.611Z,33.53
2023-05-02T11:40:59.775Z,34.20
2023-05-02T11:46:08.487Z,63.92
2023-05-02T11:51:11.853Z,30.42
2023-05-02T11:56:14.701Z,79.95
2023-05-02T12:01:27.572Z,89.68
2023-05-02T12:06:30.443Z,131.15
2023-05-02T12:11:33.206Z,28.08
2023-05-02T12:16:36.282Z,38.50
2023-05-02T12:21:39.053Z,133.20
2023-05-02T12:26:41.958Z,481.13
2023-05-02T12:31:52.805Z,75.93
2023-05-02T12:36:55.788Z,354.55
2023-05-02T12:41:58.678Z,950.30
2023-05-02T12:47:02.167Z,999.90
2023-05-02T12:52:13.370Z,999.90
2023-05-02T12:57:26.794Z,999.90
2023-05-02T13:02:29.499Z,999.90
2023-05-02T13:07:32.346Z,999.90
2023-05-02T13:12:38.016Z,999.90
2023-05-02T13:17:41.296Z,999.90
2023-05-02T13:22:43.876Z,999.90
2023-05-02T13:27:55.515Z,999.90
2023-05-02T13:32:59.734Z,999.90
2023-05-02T13:38:02.537Z,999.90
2023-05-02T13:43:05.323Z,999.90
2023-05-02T13:48:08.211Z,999.90
2023-05-02T13:53:10.950Z,999.90
2023-05-02T13:58:13.615Z,999.90
2023-05-02T14:03:17.124Z,999.90
2023-05-02T14:08:24.487Z,999.90
2023-05-02T14:13:37.152Z,999.90
2023-05-02T14:18:39.871Z,999.90
2023-05-02T14:23:42.622Z,999.90
2023-05-02T14:28:45.256Z,999.90
2023-05-02T14:33:48.203Z,999.90
2023-05-02T14:38:50.807Z,999.90
2023-05-02T14:44:04.689Z,999.90
2023-05-02T14:49:07.316Z,999.90
2023-05-02T14:54:09.833Z,999.90
2023-05-02T14:59:15.632Z,999.90
2023-05-02T15:04:20.273Z,999.90
2023-05-02T15:09:23.108Z,999.90
2023-05-02T15:14:25.687Z,999.90
2023-05-02T15:19:28.811Z,999.90
2023-05-02T15:24:31.773Z,999.90
2023-05-02T15:29:35.198Z,917.00
2023-05-02T15:34:37.778Z,954.90
2023-05-02T15:39:47.772Z,994.83
2023-05-02T15:45:00.351Z,998.88
2023-05-02T15:50:03.352Z,989.05
2023-05-02T15:55:06.659Z,999.90
2023-05-02T16:00:12.229Z,999.85
2023-05-02T16:05:14.984Z,999.90
2023-05-02T16:10:17.523Z,999.90
2023-05-02T16:15:21.260Z,999.90
2023-05-02T16:20:23.889Z,999.90
2023-05-02T16:25:26.638Z,999.90
2023-05-02T16:30:29.361Z,999.90
2023-05-02T16:35:32.005Z,999.90
2023-05-02T16:40:34.952Z,43.33
2023-05-02T16:45:37.516Z,141.32
2023-05-02T16:50:40.044Z,82.10
2023-05-02T16:55:42.637Z,124.22
2023-05-02T17:04:39.674Z,37.53
2023-05-02T17:09:44.359Z,63.07
2023-05-02T17:19:51.561Z,43.78
2023-05-02T17:24:55.656Z,42.60
2023-05-02T17:29:59.553Z,49.38
2023-05-02T17:35:09.932Z,53.65
2023-05-02T17:40:13.470Z,38.83
2023-05-02T17:45:17.601Z,58.53
2023-05-02T17:50:20.928Z,54.28
2023-05-02T17:55:38.017Z,256.42
2023-05-02T18:00:52.125Z,382.40
2023-05-02T18:05:55.722Z,42.03
2023-05-02T18:11:00.776Z,42.33
2023-05-02T18:21:10.573Z,5.63
2023-05-02T18:26:14.862Z,2.25
2023-05-02T18:31:18.511Z,7.55
2023-05-02T18:36:29.446Z,3.55
2023-05-02T18:41:35.590Z,6.18
2023-05-02T18:46:39.188Z,5.10
2023-05-02T18:56:47.825Z,6.25
2023-05-02T19:01:51.817Z,14.80
2023-05-02T19:06:55.904Z,0.47
2023-05-02T19:11:59.346Z,0.98
2023-05-02T19:17:03.175Z,4.95
2023-05-02T19:22:06.730Z,2.40
2023-05-02T19:27:10.624Z,7.88
2023-05-02T19:32:15.292Z,0.80
2023-05-02T19:42:32.158Z,1.35
2023-05-02T19:47:35.548Z,9.57
2023-05-02T19:52:42.513Z,36.08
2023-05-02T19:57:45.898Z,27.48
2023-05-02T20:02:51.331Z,61.15
2023-05-02T20:07:54.994Z,39.75
2023-05-02T20:13:05.671Z,27.80
2023-05-02T20:18:10.079Z,28.75
2023-05-02T20:23:14.210Z,15.65
2023-05-02T20:28:27.631Z,10.37
2023-05-02T20:33:41.606Z,25.27
2023-05-02T20:38:48.706Z,47.25
2023-05-02T20:43:52.484Z,29.45
2023-05-02T20:48:55.252Z,16.63
2023-05-02T20:53:58.250Z,4.68
2023-05-02T20:59:00.920Z,6.63
2023-05-02T21:04:05.028Z,49.80
2023-05-02T21:09:10.130Z,27.35
2023-05-02T21:14:12.762Z,18.83
2023-05-02T21:19:25.549Z,3.15
2023-05-02T21:24:28.217Z,1.92
2023-05-02T21:29:30.732Z,1.00
2023-05-02T21:34:33.451Z,1.10
2023-05-02T21:39:36.200Z,2.70
2023-05-02T21:44:38.857Z,7.20
2023-05-02T21:49:41.569Z,1.70
2023-05-02T21:54:47.987Z,12.95
2023-05-02T21:59:50.693Z,2.13
2023-05-02T22:04:53.373Z,2.72
2023-05-02T22:09:56.018Z,1.80
2023-05-02T22:14:58.811Z,6.38
2023-05-02T22:20:03.164Z,2.10
2023-05-02T22:25:06.941Z,6.28
2023-05-02T22:30:10.813Z,11.23
2023-05-02T22:35:13.368Z,6.18
2023-05-02T22:40:15.944Z,3.42
2023-05-02T22:45:18.996Z,4.53
2023-05-02T22:50:22.427Z,4.30
2023-05-02T22:55:39.328Z,2.80
2023-05-02T23:00:42.269Z,1.63
2023-05-02T23:05:45.022Z,10.43
2023-05-02T23:11:07.675Z,2.00
2023-05-02T23:16:10.394Z,34.05
2023-05-02T23:21:17.253Z,8.75
2023-05-02T23:26:19.801Z,8.82
2023-05-02T23:31:22.460Z,2.45
2023-05-02T23:36:43.488Z,4.18
2023-05-02T23:41:46.298Z,1.98
2023-05-02T23:46:51.273Z,2.80
2023-05-02T23:51:53.990Z,33.03
2023-05-02T23:56:57.725Z,21.42
